sensor_id;sensor_type;location;lat;lon;timestamp;temperature;humidity
40123;DHT22;25832;45.490;4.912;2022-09-06T00:00:15;23.60;99.40
40123;DHT22;25832;45.490;4.912;2022-09-06T00:02:41;23.50;99.60
40123;DHT22;25832;45.490;4.912;2022-09-06T00:05:08;23.50;99.70
40123;DHT22;25832;45.490;4.912;2022-09-06T00:07:35;23.50;99.90
40123;DHT22;25832;45.490;4.912;2022-09-06T00:10:01;23.40;99.90
40123;DHT22;25832;45.490;4.912;2022-09-06T00:12:27;23.30;99.90
40123;DHT22;25832;45.490;4.912;2022-09-06T00:14:53;23.30;99.90
40123;DHT22;25832;45.490;4.912;2022-09-06T00:17:19;23.30;99.90
40123;DHT22;25832;45.490;4.912;2022-09-06T00:19:45;23.20;99.90
40123;DHT22;25832;45.490;4.912;2022-09-06T00:22:11;23.10;99.90
40123;DHT22;25832;45.490;4.912;2022-09-06T00:24:36;23.10;99.90
40123;DHT22;25832;45.490;4.912;2022-09-06T00:27:03;23.10;99.90
40123;DHT22;25832;45.490;4.912;2022-09-06T00:29:29;23.10;99.90
40123;DHT22;25832;45.490;4.912;2022-09-06T00:31:55;23.10;99.90
40123;DHT22;25832;45.490;4.912;2022-09-06T00:34:21;23.00;99.90
40123;DHT22;25832;45.490;4.912;2022-09-06T00:36:46;23.00;99.90
40123;DHT22;25832;45.490;4.912;2022-09-06T00:39:12;23.00;99.90
40123;DHT22;25832;45.490;4.912;2022-09-06T00:41:38;22.90;99.90
40123;DHT22;25832;45.490;4.912;2022-09-06T00:44:03;22.90;99.90
40123;DHT22;25832;45.490;4.912;2022-09-06T00:46:30;22.80;99.90
40123;DHT22;25832;45.490;4.912;2022-09-06T00:48:59;22.80;99.90
40123;DHT22;25832;45.490;4.912;2022-09-06T00:51:28;22.80;99.90
40123;DHT22;25832;45.490;4.912;2022-09-06T00:53:55;22.80;99.90
40123;DHT22;25832;45.490;4.912;2022-09-06T00:56:21;22.70;99.90
40123;DHT22;25832;45.490;4.912;2022-09-06T00:58:48;22.70;99.90
40123;DHT22;25832;45.490;4.912;2022-09-06T01:01:14;22.70;99.90
40123;DHT22;25832;45.490;4.912;2022-09-06T01:03:40;22.60;99.90
40123;DHT22;25832;45.490;4.912;2022-09-06T01:06:22;22.60;99.90
40123;DHT22;25832;45.490;4.912;2022-09-06T01:11:57;22.50;99.90
40123;DHT22;25832;45.490;4.912;2022-09-06T01:17:57;22.40;99.90
40123;DHT22;25832;45.490;4.912;2022-09-06T01:20:50;22.40;99.90
40123;DHT22;25832;45.490;4.912;2022-09-06T01:29:35;22.30;99.90
40123;DHT22;25832;45.490;4.912;2022-09-06T01:32:28;22.30;99.90
40123;DHT22;25832;45.490;4.912;2022-09-06T01:35:37;22.30;99.90
40123;DHT22;25832;45.490;4.912;2022-09-06T01:37:54;22.20;99.90
40123;DHT22;25832;45.490;4.912;2022-09-06T01:40:21;22.20;99.90
40123;DHT22;25832;45.490;4.912;2022-09-06T01:42:47;22.10;99.90
40123;DHT22;25832;45.490;4.912;2022-09-06T01:45:18;22.10;99.90
40123;DHT22;25832;45.490;4.912;2022-09-06T01:50:26;22.00;99.90
40123;DHT22;25832;45.490;4.912;2022-09-06T01:59:21;21.90;99.90
40123;DHT22;25832;45.490;4.912;2022-09-06T02:02:09;21.90;99.90
40123;DHT22;25832;45.490;4.912;2022-09-06T02:04:55;21.80;99.90
40123;DHT22;25832;45.490;4.912;2022-09-06T02:07:25;21.70;99.90
40123;DHT22;25832;45.490;4.912;2022-09-06T02:09:58;21.70;99.90
40123;DHT22;25832;45.490;4.912;2022-09-06T02:12:29;21.70;99.90
40123;DHT22;25832;45.490;4.912;2022-09-06T02:15:04;21.70;99.90
40123;DHT22;25832;45.490;4.912;2022-09-06T02:17:34;21.70;99.90
40123;DHT22;25832;45.490;4.912;2022-09-06T02:20:08;21.60;99.90
40123;DHT22;25832;45.490;4.912;2022-09-06T02:22:39;21.60;99.90
40123;DHT22;25832;45.490;4.912;2022-09-06T02:25:09;21.60;99.90
40123;DHT22;25832;45.490;4.912;2022-09-06T02:27:35;21.50;99.90
40123;DHT22;25832;45.490;4.912;2022-09-06T02:30:03;21.50;99.90
40123;DHT22;25832;45.490;4.912;2022-09-06T02:32:33;21.40;99.90
40123;DHT22;25832;45.490;4.912;2022-09-06T02:35:07;21.40;99.90
40123;DHT22;25832;45.490;4.912;2022-09-06T02:37:33;21.40;99.90
40123;DHT22;25832;45.490;4.912;2022-09-06T02:39:59;21.30;99.90
40123;DHT22;25832;45.490;4.912;2022-09-06T02:42:26;21.30;99.90
40123;DHT22;25832;45.490;4.912;2022-09-06T02:44:51;21.30;99.90
40123;DHT22;25832;45.490;4.912;2022-09-06T02:47:17;21.30;99.90
40123;DHT22;25832;45.490;4.912;2022-09-06T02:49:43;21.30;99.90
40123;DHT22;25832;45.490;4.912;2022-09-06T02:52:09;21.30;99.90
40123;DHT22;25832;45.490;4.912;2022-09-06T02:54:34;21.20;99.90
40123;DHT22;25832;45.490;4.912;2022-09-06T02:57:00;21.20;99.90
40123;DHT22;25832;45.490;4.912;2022-09-06T02:59:26;21.10;99.90
40123;DHT22;25832;45.490;4.912;2022-09-06T03:01:52;21.10;99.90
40123;DHT22;25832;45.490;4.912;2022-09-06T03:04:17;21.10;99.90
40123;DHT22;25832;45.490;4.912;2022-09-06T03:06:43;21.10;99.90
40123;DHT22;25832;45.490;4.912;2022-09-06T03:09:09;21.10;99.90
40123;DHT22;25832;45.490;4.912;2022-09-06T03:11:35;21.10;99.90
40123;DHT22;25832;45.490;4.912;2022-09-06T03:14:01;21.00;99.90
40123;DHT22;25832;45.490;4.912;2022-09-06T03:16:27;21.00;99.90
40123;DHT22;25832;45.490;4.912;2022-09-06T03:18:53;20.90;99.90
40123;DHT22;25832;45.490;4.912;2022-09-06T03:21:19;20.90;99.90
40123;DHT22;25832;45.490;4.912;2022-09-06T03:23:44;20.90;99.90
40123;DHT22;25832;45.490;4.912;2022-09-06T03:26:10;20.90;99.90
40123;DHT22;25832;45.490;4.912;2022-09-06T03:28:36;20.90;99.90
40123;DHT22;25832;45.490;4.912;2022-09-06T03:31:03;20.90;99.90
40123;DHT22;25832;45.490;4.912;2022-09-06T03:33:29;21.00;99.90
40123;DHT22;25832;45.490;4.912;2022-09-06T03:35:57;21.00;99.90
40123;DHT22;25832;45.490;4.912;2022-09-06T03:38:25;21.00;99.90
40123;DHT22;25832;45.490;4.912;2022-09-06T03:40:51;21.10;99.90
40123;DHT22;25832;45.490;4.912;2022-09-06T03:43:18;21.00;99.90
40123;DHT22;25832;45.490;4.912;2022-09-06T03:45:46;21.10;99.90
40123;DHT22;25832;45.490;4.912;2022-09-06T03:48:12;21.10;99.90
40123;DHT22;25832;45.490;4.912;2022-09-06T03:50:38;21.10;99.90
40123;DHT22;25832;45.490;4.912;2022-09-06T03:53:07;21.10;99.90
40123;DHT22;25832;45.490;4.912;2022-09-06T03:55:32;21.10;99.90
40123;DHT22;25832;45.490;4.912;2022-09-06T03:57:58;21.10;99.90
40123;DHT22;25832;45.490;4.912;2022-09-06T04:00:24;21.10;99.90
40123;DHT22;25832;45.490;4.912;2022-09-06T04:02:49;21.10;99.90
40123;DHT22;25832;45.490;4.912;2022-09-06T04:05:16;21.10;99.90
40123;DHT22;25832;45.490;4.912;2022-09-06T04:07:42;21.10;99.90
40123;DHT22;25832;45.490;4.912;2022-09-06T04:10:08;21.10;99.90
40123;DHT22;25832;45.490;4.912;2022-09-06T04:12:33;21.10;99.90
40123;DHT22;25832;45.490;4.912;2022-09-06T04:14:59;21.10;99.90
40123;DHT22;25832;45.490;4.912;2022-09-06T04:17:25;21.10;99.90
40123;DHT22;25832;45.490;4.912;2022-09-06T04:19:50;21.10;99.90
40123;DHT22;25832;45.490;4.912;2022-09-06T04:22:16;21.10;99.90
40123;DHT22;25832;45.490;4.912;2022-09-06T04:24:42;21.10;99.90
40123;DHT22;25832;45.490;4.912;2022-09-06T04:27:07;21.20;99.90
40123;DHT22;25832;45.490;4.912;2022-09-06T04:29:33;21.20;99.90
40123;DHT22;25832;45.490;4.912;2022-09-06T04:31:59;21.20;99.90
40123;DHT22;25832;45.490;4.912;2022-09-06T04:34:24;21.20;99.90
40123;DHT22;25832;45.490;4.912;2022-09-06T04:36:50;21.20;99.90
40123;DHT22;25832;45.490;4.912;2022-09-06T04:39:16;21.20;99.90
40123;DHT22;25832;45.490;4.912;2022-09-06T04:41:42;21.20;99.90
40123;DHT22;25832;45.490;4.912;2022-09-06T04:44:07;21.20;99.90
40123;DHT22;25832;45.490;4.912;2022-09-06T04:46:33;21.20;99.90
40123;DHT22;25832;45.490;4.912;2022-09-06T04:48:59;21.20;99.90
40123;DHT22;25832;45.490;4.912;2022-09-06T04:51:26;21.20;99.90
40123;DHT22;25832;45.490;4.912;2022-09-06T04:53:52;21.20;99.90
40123;DHT22;25832;45.490;4.912;2022-09-06T04:56:20;21.20;99.90
40123;DHT22;25832;45.490;4.912;2022-09-06T04:58:46;21.20;99.90
40123;DHT22;25832;45.490;4.912;2022-09-06T05:01:13;21.20;99.90
40123;DHT22;25832;45.490;4.912;2022-09-06T05:03:39;21.30;99.90
40123;DHT22;25832;45.490;4.912;2022-09-06T05:06:09;21.30;99.90
40123;DHT22;25832;45.490;4.912;2022-09-06T05:08:37;21.30;99.90
40123;DHT22;25832;45.490;4.912;2022-09-06T05:11:03;21.30;99.90
40123;DHT22;25832;45.490;4.912;2022-09-06T05:13:29;21.30;99.90
40123;DHT22;25832;45.490;4.912;2022-09-06T05:15:55;21.40;99.90
40123;DHT22;25832;45.490;4.912;2022-09-06T05:18:24;21.40;99.90
40123;DHT22;25832;45.490;4.912;2022-09-06T05:20:53;21.40;99.90
40123;DHT22;25832;45.490;4.912;2022-09-06T05:23:19;21.40;99.90
40123;DHT22;25832;45.490;4.912;2022-09-06T05:25:46;21.40;99.90
40123;DHT22;25832;45.490;4.912;2022-09-06T05:28:12;21.50;99.90
40123;DHT22;25832;45.490;4.912;2022-09-06T05:30:37;21.50;99.90
40123;DHT22;25832;45.490;4.912;2022-09-06T05:33:03;21.40;99.90
40123;DHT22;25832;45.490;4.912;2022-09-06T05:35:29;21.50;99.90
40123;DHT22;25832;45.490;4.912;2022-09-06T05:37:55;21.50;99.90
40123;DHT22;25832;45.490;4.912;2022-09-06T05:40:20;21.50;99.90
40123;DHT22;25832;45.490;4.912;2022-09-06T05:42:46;21.50;99.90
40123;DHT22;25832;45.490;4.912;2022-09-06T05:45:12;21.50;99.90
40123;DHT22;25832;45.490;4.912;2022-09-06T05:47:37;21.50;99.90
40123;DHT22;25832;45.490;4.912;2022-09-06T05:50:04;21.50;99.90
40123;DHT22;25832;45.490;4.912;2022-09-06T05:52:31;21.50;99.90
40123;DHT22;25832;45.490;4.912;2022-09-06T05:54:58;21.50;99.90
40123;DHT22;25832;45.490;4.912;2022-09-06T05:57:23;21.60;99.90
40123;DHT22;25832;45.490;4.912;2022-09-06T05:59:49;21.60;99.90
40123;DHT22;25832;45.490;4.912;2022-09-06T06:02:16;21.60;99.90
40123;DHT22;25832;45.490;4.912;2022-09-06T06:04:42;21.60;99.90
40123;DHT22;25832;45.490;4.912;2022-09-06T06:07:08;21.70;99.90
40123;DHT22;25832;45.490;4.912;2022-09-06T06:09:33;21.70;99.90
40123;DHT22;25832;45.490;4.912;2022-09-06T06:11:59;21.70;99.90
40123;DHT22;25832;45.490;4.912;2022-09-06T06:14:25;21.70;99.90
40123;DHT22;25832;45.490;4.912;2022-09-06T06:16:51;21.70;99.90
40123;DHT22;25832;45.490;4.912;2022-09-06T06:19:16;21.70;99.90
40123;DHT22;25832;45.490;4.912;2022-09-06T06:21:42;21.80;99.90
40123;DHT22;25832;45.490;4.912;2022-09-06T06:24:08;21.70;99.90
40123;DHT22;25832;45.490;4.912;2022-09-06T06:26:35;21.80;99.90
40123;DHT22;25832;45.490;4.912;2022-09-06T06:29:01;21.80;99.90
40123;DHT22;25832;45.490;4.912;2022-09-06T06:31:28;21.90;99.90
40123;DHT22;25832;45.490;4.912;2022-09-06T06:33:55;22.00;99.90
40123;DHT22;25832;45.490;4.912;2022-09-06T06:36:23;22.00;99.90
40123;DHT22;25832;45.490;4.912;2022-09-06T06:38:52;22.10;99.90
40123;DHT22;25832;45.490;4.912;2022-09-06T06:41:19;22.10;99.90
40123;DHT22;25832;45.490;4.912;2022-09-06T06:43:50;22.10;99.90
40123;DHT22;25832;45.490;4.912;2022-09-06T06:46:17;22.10;99.90
40123;DHT22;25832;45.490;4.912;2022-09-06T06:48:44;22.20;99.90
40123;DHT22;25832;45.490;4.912;2022-09-06T06:51:12;22.30;99.90
40123;DHT22;25832;45.490;4.912;2022-09-06T06:53:38;22.40;99.90
40123;DHT22;25832;45.490;4.912;2022-09-06T06:56:17;22.50;99.90
40123;DHT22;25832;45.490;4.912;2022-09-06T06:58:44;22.80;99.90
40123;DHT22;25832;45.490;4.912;2022-09-06T07:01:10;23.00;99.90
40123;DHT22;25832;45.490;4.912;2022-09-06T07:03:36;23.30;99.90
40123;DHT22;25832;45.490;4.912;2022-09-06T07:06:03;23.50;99.90
40123;DHT22;25832;45.490;4.912;2022-09-06T07:08:28;23.80;99.90
40123;DHT22;25832;45.490;4.912;2022-09-06T07:10:54;24.00;99.90
40123;DHT22;25832;45.490;4.912;2022-09-06T07:13:20;24.20;99.90
40123;DHT22;25832;45.490;4.912;2022-09-06T07:15:45;24.40;99.90
40123;DHT22;25832;45.490;4.912;2022-09-06T07:18:14;24.60;99.90
40123;DHT22;25832;45.490;4.912;2022-09-06T07:20:40;24.70;99.90
40123;DHT22;25832;45.490;4.912;2022-09-06T07:23:06;24.80;99.90
40123;DHT22;25832;45.490;4.912;2022-09-06T07:25:32;24.90;99.90
40123;DHT22;25832;45.490;4.912;2022-09-06T07:28:00;25.00;99.90
40123;DHT22;25832;45.490;4.912;2022-09-06T07:30:29;25.10;99.90
40123;DHT22;25832;45.490;4.912;2022-09-06T07:32:55;25.20;99.90
40123;DHT22;25832;45.490;4.912;2022-09-06T07:35:21;25.30;99.90
40123;DHT22;25832;45.490;4.912;2022-09-06T07:37:54;25.40;99.90
40123;DHT22;25832;45.490;4.912;2022-09-06T07:40:20;25.60;99.90
40123;DHT22;25832;45.490;4.912;2022-09-06T07:42:46;25.70;99.90
40123;DHT22;25832;45.490;4.912;2022-09-06T07:45:11;25.80;99.90
40123;DHT22;25832;45.490;4.912;2022-09-06T07:47:37;25.90;99.90
40123;DHT22;25832;45.490;4.912;2022-09-06T07:50:03;26.00;99.90
40123;DHT22;25832;45.490;4.912;2022-09-06T07:52:29;26.10;99.90
40123;DHT22;25832;45.490;4.912;2022-09-06T07:54:55;26.10;99.90
40123;DHT22;25832;45.490;4.912;2022-09-06T07:57:22;26.20;99.90
40123;DHT22;25832;45.490;4.912;2022-09-06T07:59:48;26.20;99.90
40123;DHT22;25832;45.490;4.912;2022-09-06T08:02:14;26.20;99.90
40123;DHT22;25832;45.490;4.912;2022-09-06T08:04:41;26.40;99.90
40123;DHT22;25832;45.490;4.912;2022-09-06T08:07:07;26.60;99.90
40123;DHT22;25832;45.490;4.912;2022-09-06T08:09:33;26.70;99.50
40123;DHT22;25832;45.490;4.912;2022-09-06T08:11:59;26.90;99.90
40123;DHT22;25832;45.490;4.912;2022-09-06T08:14:33;27.00;99.00
40123;DHT22;25832;45.490;4.912;2022-09-06T08:16:59;27.10;98.90
40123;DHT22;25832;45.490;4.912;2022-09-06T08:19:25;27.20;98.60
40123;DHT22;25832;45.490;4.912;2022-09-06T08:21:53;27.30;98.60
40123;DHT22;25832;45.490;4.912;2022-09-06T08:24:18;27.30;98.40
40123;DHT22;25832;45.490;4.912;2022-09-06T08:26:44;27.40;98.40
40123;DHT22;25832;45.490;4.912;2022-09-06T08:29:11;27.40;98.10
40123;DHT22;25832;45.490;4.912;2022-09-06T08:31:40;27.40;98.40
40123;DHT22;25832;45.490;4.912;2022-09-06T08:34:06;27.50;98.50
40123;DHT22;25832;45.490;4.912;2022-09-06T08:36:32;27.60;97.90
40123;DHT22;25832;45.490;4.912;2022-09-06T08:38:59;27.70;97.40
40123;DHT22;25832;45.490;4.912;2022-09-06T08:41:52;27.70;96.40
40123;DHT22;25832;45.490;4.912;2022-09-06T08:44:23;27.70;96.90
40123;DHT22;25832;45.490;4.912;2022-09-06T08:47:11;27.70;97.50
40123;DHT22;25832;45.490;4.912;2022-09-06T08:49:59;27.70;95.90
40123;DHT22;25832;45.490;4.912;2022-09-06T08:55:28;27.90;96.70
40123;DHT22;25832;45.490;4.912;2022-09-06T09:00:33;28.10;96.60
40123;DHT22;25832;45.490;4.912;2022-09-06T09:03:19;28.20;96.20
40123;DHT22;25832;45.490;4.912;2022-09-06T09:05:49;28.40;95.90
40123;DHT22;25832;45.490;4.912;2022-09-06T09:08:34;28.60;95.20
40123;DHT22;25832;45.490;4.912;2022-09-06T09:11:11;28.60;95.10
40123;DHT22;25832;45.490;4.912;2022-09-06T09:16:41;28.50;93.90
40123;DHT22;25832;45.490;4.912;2022-09-06T09:19:07;28.50;93.70
40123;DHT22;25832;45.490;4.912;2022-09-06T09:21:37;28.60;94.10
40123;DHT22;25832;45.490;4.912;2022-09-06T09:24:11;28.60;93.10
40123;DHT22;25832;45.490;4.912;2022-09-06T09:27:07;28.60;93.60
40123;DHT22;25832;45.490;4.912;2022-09-06T09:32:36;28.60;93.80
40123;DHT22;25832;45.490;4.912;2022-09-06T09:37:45;28.80;93.50
40123;DHT22;25832;45.490;4.912;2022-09-06T09:42:43;28.90;93.10
40123;DHT22;25832;45.490;4.912;2022-09-06T09:45:22;29.00;93.20
40123;DHT22;25832;45.490;4.912;2022-09-06T09:47:48;29.00;91.70
40123;DHT22;25832;45.490;4.912;2022-09-06T09:50:27;29.00;91.40
40123;DHT22;25832;45.490;4.912;2022-09-06T09:52:54;28.90;92.00
40123;DHT22;25832;45.490;4.912;2022-09-06T09:55:24;28.80;92.60
40123;DHT22;25832;45.490;4.912;2022-09-06T09:57:51;28.90;92.70
40123;DHT22;25832;45.490;4.912;2022-09-06T10:00:38;28.90;92.20
40123;DHT22;25832;45.490;4.912;2022-09-06T10:03:18;29.00;91.00
40123;DHT22;25832;45.490;4.912;2022-09-06T10:05:55;29.10;91.50
40123;DHT22;25832;45.490;4.912;2022-09-06T10:08:24;29.10;91.10
40123;DHT22;25832;45.490;4.912;2022-09-06T10:10:50;29.20;91.40
40123;DHT22;25832;45.490;4.912;2022-09-06T10:13:34;29.10;91.70
40123;DHT22;25832;45.490;4.912;2022-09-06T10:15:59;29.20;91.40
40123;DHT22;25832;45.490;4.912;2022-09-06T10:18:39;29.20;91.50
40123;DHT22;25832;45.490;4.912;2022-09-06T10:21:11;29.20;91.60
40123;DHT22;25832;45.490;4.912;2022-09-06T10:26:29;29.10;91.30
40123;DHT22;25832;45.490;4.912;2022-09-06T10:29:07;29.00;91.60
40123;DHT22;25832;45.490;4.912;2022-09-06T10:39:48;29.30;90.80
40123;DHT22;25832;45.490;4.912;2022-09-06T10:53:31;29.70;89.20
40123;DHT22;25832;45.490;4.912;2022-09-06T10:56:10;29.80;90.40
40123;DHT22;25832;45.490;4.912;2022-09-06T10:58:46;30.00;89.80
40123;DHT22;25832;45.490;4.912;2022-09-06T11:04:16;30.00;90.00
40123;DHT22;25832;45.490;4.912;2022-09-06T11:06:48;30.20;87.60
40123;DHT22;25832;45.490;4.912;2022-09-06T11:09:37;30.30;88.50
40123;DHT22;25832;45.490;4.912;2022-09-06T11:12:34;30.30;88.00
40123;DHT22;25832;45.490;4.912;2022-09-06T11:15:03;30.20;87.60
40123;DHT22;25832;45.490;4.912;2022-09-06T11:20:41;30.20;87.90
40123;DHT22;25832;45.490;4.912;2022-09-06T11:26:23;30.10;88.90
40123;DHT22;25832;45.490;4.912;2022-09-06T11:28:58;30.10;88.80
40123;DHT22;25832;45.490;4.912;2022-09-06T11:31:28;30.10;89.10
40123;DHT22;25832;45.490;4.912;2022-09-06T11:34:10;30.20;89.00
40123;DHT22;25832;45.490;4.912;2022-09-06T11:39:33;30.40;89.10
40123;DHT22;25832;45.490;4.912;2022-09-06T11:42:00;30.60;89.70
40123;DHT22;25832;45.490;4.912;2022-09-06T11:44:52;30.70;89.80
40123;DHT22;25832;45.490;4.912;2022-09-06T11:47:50;30.80;87.60
40123;DHT22;25832;45.490;4.912;2022-09-06T11:55:22;30.90;87.20
40123;DHT22;25832;45.490;4.912;2022-09-06T11:57:54;30.70;86.40
40123;DHT22;25832;45.490;4.912;2022-09-06T12:00:22;30.70;87.20
40123;DHT22;25832;45.490;4.912;2022-09-06T12:02:49;30.70;87.50
40123;DHT22;25832;45.490;4.912;2022-09-06T12:05:24;30.70;87.30
40123;DHT22;25832;45.490;4.912;2022-09-06T12:13:33;30.80;87.30
40123;DHT22;25832;45.490;4.912;2022-09-06T12:15:59;30.90;88.60
40123;DHT22;25832;45.490;4.912;2022-09-06T12:24:00;31.10;87.30
40123;DHT22;25832;45.490;4.912;2022-09-06T12:26:53;31.10;85.80
40123;DHT22;25832;45.490;4.912;2022-09-06T12:29:33;31.20;86.90
40123;DHT22;25832;45.490;4.912;2022-09-06T12:31:59;31.10;85.20
40123;DHT22;25832;45.490;4.912;2022-09-06T12:34:30;31.00;85.20
40123;DHT22;25832;45.490;4.912;2022-09-06T12:37:05;31.00;86.60
40123;DHT22;25832;45.490;4.912;2022-09-06T12:39:32;30.90;87.40
40123;DHT22;25832;45.490;4.912;2022-09-06T12:42:06;30.90;86.80
40123;DHT22;25832;45.490;4.912;2022-09-06T12:44:37;31.00;86.30
40123;DHT22;25832;45.490;4.912;2022-09-06T12:47:11;31.00;87.10
40123;DHT22;25832;45.490;4.912;2022-09-06T12:49:38;31.10;86.80
40123;DHT22;25832;45.490;4.912;2022-09-06T12:52:11;31.10;88.00
40123;DHT22;25832;45.490;4.912;2022-09-06T12:54:46;31.10;86.60
40123;DHT22;25832;45.490;4.912;2022-09-06T12:57:21;31.20;87.00
40123;DHT22;25832;45.490;4.912;2022-09-06T12:59:52;31.10;85.30
40123;DHT22;25832;45.490;4.912;2022-09-06T13:02:39;31.10;86.20
40123;DHT22;25832;45.490;4.912;2022-09-06T13:05:09;31.10;86.30
40123;DHT22;25832;45.490;4.912;2022-09-06T13:07:41;31.10;86.00
40123;DHT22;25832;45.490;4.912;2022-09-06T13:10:08;31.00;86.90
40123;DHT22;25832;45.490;4.912;2022-09-06T13:12:39;31.10;86.60
40123;DHT22;25832;45.490;4.912;2022-09-06T13:15:11;31.10;86.50
40123;DHT22;25832;45.490;4.912;2022-09-06T13:17:38;31.30;84.80
40123;DHT22;25832;45.490;4.912;2022-09-06T13:20:30;31.20;85.30
40123;DHT22;25832;45.490;4.912;2022-09-06T13:23:10;31.40;86.20
40123;DHT22;25832;45.490;4.912;2022-09-06T13:25:48;31.40;85.90
40123;DHT22;25832;45.490;4.912;2022-09-06T13:28:31;31.50;86.70
40123;DHT22;25832;45.490;4.912;2022-09-06T13:31:19;31.60;84.20
40123;DHT22;25832;45.490;4.912;2022-09-06T13:33:54;31.70;84.10
40123;DHT22;25832;45.490;4.912;2022-09-06T13:36:31;31.60;84.20
40123;DHT22;25832;45.490;4.912;2022-09-06T13:38:58;31.60;84.70
40123;DHT22;25832;45.490;4.912;2022-09-06T13:41:35;31.60;84.70
40123;DHT22;25832;45.490;4.912;2022-09-06T13:46:33;31.30;83.30
40123;DHT22;25832;45.490;4.912;2022-09-06T13:49:00;31.10;83.10
40123;DHT22;25832;45.490;4.912;2022-09-06T13:51:26;30.90;83.90
40123;DHT22;25832;45.490;4.912;2022-09-06T13:54:12;30.70;85.20
40123;DHT22;25832;45.490;4.912;2022-09-06T13:56:39;30.60;85.40
40123;DHT22;25832;45.490;4.912;2022-09-06T13:59:07;30.40;85.70
40123;DHT22;25832;45.490;4.912;2022-09-06T14:01:35;30.20;85.80
40123;DHT22;25832;45.490;4.912;2022-09-06T14:04:02;30.10;87.10
40123;DHT22;25832;45.490;4.912;2022-09-06T14:06:27;29.90;86.80
40123;DHT22;25832;45.490;4.912;2022-09-06T14:08:53;29.80;86.90
40123;DHT22;25832;45.490;4.912;2022-09-06T14:11:19;29.70;87.10
40123;DHT22;25832;45.490;4.912;2022-09-06T14:13:44;29.70;87.40
40123;DHT22;25832;45.490;4.912;2022-09-06T14:16:10;29.60;87.40
40123;DHT22;25832;45.490;4.912;2022-09-06T14:18:37;29.50;87.60
40123;DHT22;25832;45.490;4.912;2022-09-06T14:21:02;29.40;87.90
40123;DHT22;25832;45.490;4.912;2022-09-06T14:23:30;29.30;89.10
40123;DHT22;25832;45.490;4.912;2022-09-06T14:26:00;29.30;89.10
40123;DHT22;25832;45.490;4.912;2022-09-06T14:28:27;29.10;89.20
40123;DHT22;25832;45.490;4.912;2022-09-06T14:30:55;29.10;89.60
40123;DHT22;25832;45.490;4.912;2022-09-06T14:33:21;29.00;89.50
40123;DHT22;25832;45.490;4.912;2022-09-06T14:35:47;28.90;89.40
40123;DHT22;25832;45.490;4.912;2022-09-06T14:38:13;28.80;89.30
40123;DHT22;25832;45.490;4.912;2022-09-06T14:40:39;28.70;89.60
40123;DHT22;25832;45.490;4.912;2022-09-06T14:43:08;28.60;89.80
40123;DHT22;25832;45.490;4.912;2022-09-06T14:45:34;28.60;89.90
40123;DHT22;25832;45.490;4.912;2022-09-06T14:48:00;28.50;89.80
40123;DHT22;25832;45.490;4.912;2022-09-06T14:50:26;28.40;90.00
40123;DHT22;25832;45.490;4.912;2022-09-06T14:52:52;28.30;90.20
40123;DHT22;25832;45.490;4.912;2022-09-06T14:55:18;28.20;90.30
40123;DHT22;25832;45.490;4.912;2022-09-06T14:57:44;28.10;90.30
40123;DHT22;25832;45.490;4.912;2022-09-06T15:00:10;28.10;90.40
40123;DHT22;25832;45.490;4.912;2022-09-06T15:02:36;28.00;90.50
40123;DHT22;25832;45.490;4.912;2022-09-06T15:05:02;27.90;90.50
40123;DHT22;25832;45.490;4.912;2022-09-06T15:07:29;27.80;90.70
40123;DHT22;25832;45.490;4.912;2022-09-06T15:09:54;27.80;90.70
40123;DHT22;25832;45.490;4.912;2022-09-06T15:12:20;27.70;90.90
40123;DHT22;25832;45.490;4.912;2022-09-06T15:14:46;27.60;91.20
40123;DHT22;25832;45.490;4.912;2022-09-06T15:17:11;27.50;91.40
40123;DHT22;25832;45.490;4.912;2022-09-06T15:19:37;27.50;91.60
40123;DHT22;25832;45.490;4.912;2022-09-06T15:22:05;27.50;91.60
40123;DHT22;25832;45.490;4.912;2022-09-06T15:24:31;27.40;91.70
40123;DHT22;25832;45.490;4.912;2022-09-06T15:26:57;27.30;91.90
40123;DHT22;25832;45.490;4.912;2022-09-06T15:29:24;27.30;92.50
40123;DHT22;25832;45.490;4.912;2022-09-06T15:31:52;27.20;93.40
40123;DHT22;25832;45.490;4.912;2022-09-06T15:34:19;27.10;94.60
40123;DHT22;25832;45.490;4.912;2022-09-06T15:36:45;27.00;94.40
40123;DHT22;25832;45.490;4.912;2022-09-06T15:39:11;26.80;95.60
40123;DHT22;25832;45.490;4.912;2022-09-06T15:41:39;26.70;97.30
40123;DHT22;25832;45.490;4.912;2022-09-06T15:44:16;26.50;98.30
40123;DHT22;25832;45.490;4.912;2022-09-06T15:46:49;26.40;99.40
40123;DHT22;25832;45.490;4.912;2022-09-06T15:49:22;26.20;99.90
40123;DHT22;25832;45.490;4.912;2022-09-06T15:51:49;26.00;99.90
40123;DHT22;25832;45.490;4.912;2022-09-06T15:54:20;25.80;99.90
40123;DHT22;25832;45.490;4.912;2022-09-06T15:57:04;25.60;99.90
40123;DHT22;25832;45.490;4.912;2022-09-06T15:59:30;25.40;99.90
40123;DHT22;25832;45.490;4.912;2022-09-06T16:01:55;25.20;99.90
40123;DHT22;25832;45.490;4.912;2022-09-06T16:04:21;25.10;99.50
40123;DHT22;25832;45.490;4.912;2022-09-06T16:06:48;25.10;99.50
40123;DHT22;25832;45.490;4.912;2022-09-06T16:09:14;25.20;99.90
40123;DHT22;25832;45.490;4.912;2022-09-06T16:11:42;25.20;99.90
40123;DHT22;25832;45.490;4.912;2022-09-06T16:14:11;25.00;99.90
40123;DHT22;25832;45.490;4.912;2022-09-06T16:16:38;24.80;99.90
40123;DHT22;25832;45.490;4.912;2022-09-06T16:19:05;24.60;99.90
40123;DHT22;25832;45.490;4.912;2022-09-06T16:21:33;24.30;99.90
40123;DHT22;25832;45.490;4.912;2022-09-06T16:24:02;24.00;99.90
40123;DHT22;25832;45.490;4.912;2022-09-06T16:26:31;23.80;99.90
40123;DHT22;25832;45.490;4.912;2022-09-06T16:28:58;23.80;99.90
40123;DHT22;25832;45.490;4.912;2022-09-06T16:31:24;23.70;99.90
40123;DHT22;25832;45.490;4.912;2022-09-06T16:33:51;23.70;99.90
40123;DHT22;25832;45.490;4.912;2022-09-06T16:36:18;23.60;99.90
40123;DHT22;25832;45.490;4.912;2022-09-06T16:38:45;23.60;99.90
40123;DHT22;25832;45.490;4.912;2022-09-06T16:41:21;23.60;99.90
40123;DHT22;25832;45.490;4.912;2022-09-06T16:43:48;23.60;99.90
40123;DHT22;25832;45.490;4.912;2022-09-06T16:46:14;23.60;99.90
40123;DHT22;25832;45.490;4.912;2022-09-06T16:48:40;23.50;99.90
40123;DHT22;25832;45.490;4.912;2022-09-06T16:51:11;23.50;99.90
40123;DHT22;25832;45.490;4.912;2022-09-06T16:53:39;23.40;99.90
40123;DHT22;25832;45.490;4.912;2022-09-06T16:56:05;23.40;99.90
40123;DHT22;25832;45.490;4.912;2022-09-06T16:58:31;23.40;99.90
40123;DHT22;25832;45.490;4.912;2022-09-06T17:00:57;23.50;99.90
40123;DHT22;25832;45.490;4.912;2022-09-06T17:03:22;23.40;99.90
40123;DHT22;25832;45.490;4.912;2022-09-06T17:05:50;23.40;99.90
40123;DHT22;25832;45.490;4.912;2022-09-06T17:08:16;23.40;99.90
40123;DHT22;25832;45.490;4.912;2022-09-06T17:10:42;23.40;99.90
40123;DHT22;25832;45.490;4.912;2022-09-06T17:13:09;23.40;99.90